New Orleans, Louisiana
Traffic Map
Current Weather Conditions
New Orleans, Louisiana
Clear
Clear
77°
Feels Like: 79°
Wind Chill: 77° Ceiling: Unl
Heat Index: 79° Visibility: 10mi
Dew Point: 69° Wind: 5mph
Humidity: 76% Direction: 110° (ESE)
Pressure: 30.15in Gusts: 0mph
Raw Report DataKNEW 230753Z AUTO 11004KT 10SM CLR 25/21 A3015 RMK AO2 SLP202 T02500206 TSNO
Traffic Incident Summary
Active as of:
Severity:
Category:
InformationThere was an issue retrieving the traffic information for this location. Please try a different location or try again shortly.
Advertisements
Track Severe Weather on mobile